createdAt,value
2023-01-04T00:00:06.680Z,101913.44
2023-01-04T00:02:33.708Z,101906.41
2023-01-04T00:05:00.644Z,101901.31
2023-01-04T00:07:29.435Z,101899.72
2023-01-04T00:09:56.880Z,101899.81
2023-01-04T00:12:23.927Z,101886.41
2023-01-04T00:14:50.775Z,101888.22
2023-01-04T00:17:18.961Z,101876.66
2023-01-04T00:19:45.836Z,101875.22
2023-01-04T00:22:12.919Z,101871.09
2023-01-04T00:24:39.818Z,101862.13
2023-01-04T00:27:06.692Z,101868.53
2023-01-04T00:29:33.666Z,101864.91
2023-01-04T00:32:00.552Z,101861.03
2023-01-04T00:34:28.749Z,101862.38
2023-01-04T00:36:55.669Z,101849.84
2023-01-04T00:39:22.664Z,101856.47
2023-01-04T00:42:00.671Z,101850.88
2023-01-04T00:44:29.006Z,101844.47
2023-01-04T00:46:56.085Z,101841.34
2023-01-04T00:49:23.049Z,101832.94
2023-01-04T00:51:51.807Z,101820.38
2023-01-04T00:54:19.770Z,101820.53
2023-01-04T00:56:48.194Z,101807.03
2023-01-04T00:59:18.668Z,101798.97
2023-01-04T01:01:46.867Z,101785.09
2023-01-04T01:04:18.246Z,101784.56
2023-01-04T01:06:45.479Z,101780.44
2023-01-04T01:09:14.675Z,101769.38
2023-01-04T01:11:42.134Z,101765.28
2023-01-04T01:14:15.686Z,101770.41
2023-01-04T01:16:55.252Z,101745.00
2023-01-04T01:19:23.585Z,101743.31
2023-01-04T01:21:50.443Z,101737.75
2023-01-04T01:24:20.373Z,101739.97
2023-01-04T01:26:47.309Z,101714.03
2023-01-04T01:29:14.560Z,101712.09
2023-01-04T01:31:42.070Z,101709.63
2023-01-04T01:34:09.664Z,101700.22
2023-01-04T01:36:37.861Z,101696.63
2023-01-04T01:39:04.857Z,101700.56
2023-01-04T01:41:34.892Z,101697.81
2023-01-04T01:44:05.409Z,101687.13
2023-01-04T01:46:38.697Z,101684.31
2023-01-04T01:49:14.657Z,101668.28
2023-01-04T01:51:42.469Z,101663.38
2023-01-04T01:54:14.948Z,101665.00
2023-01-04T01:56:50.453Z,101659.59
2023-01-04T01:59:18.675Z,101648.50
2023-01-04T02:01:45.993Z,101630.50
2023-01-04T02:04:16.563Z,101638.97
2023-01-04T02:06:50.102Z,101629.41
2023-01-04T02:09:19.218Z,101622.47
2023-01-04T02:11:47.436Z,101616.72
2023-01-04T02:14:28.008Z,101605.00
2023-01-04T02:17:07.841Z,101606.63
2023-01-04T02:20:01.265Z,101603.03
2023-01-04T02:23:26.494Z,101603.03
2023-01-04T02:26:57.422Z,101585.69
2023-01-04T02:30:16.871Z,101576.78
2023-01-04T02:33:13.995Z,101555.16
2023-01-04T02:35:54.104Z,101555.81
2023-01-04T02:38:30.507Z,101541.63
2023-01-04T02:41:09.537Z,101535.38
2023-01-04T02:44:08.792Z,101532.88
2023-01-04T02:46:44.442Z,101519.53
2023-01-04T02:49:31.270Z,101523.00
2023-01-04T02:51:58.170Z,101515.59
2023-01-04T02:54:32.613Z,101523.81
2023-01-04T02:57:20.792Z,101504.53
2023-01-04T03:00:20.728Z,101488.22
2023-01-04T03:03:35.682Z,101488.88
2023-01-04T03:06:17.180Z,101472.03
2023-01-04T03:08:56.515Z,101473.34
2023-01-04T03:11:49.942Z,101455.22
2023-01-04T03:14:31.296Z,101450.47
2023-01-04T03:17:04.706Z,101444.50
2023-01-04T03:19:54.818Z,101438.59
2023-01-04T03:22:50.683Z,101434.44
2023-01-04T03:25:42.366Z,101418.47
2023-01-04T03:28:33.519Z,101398.88
2023-01-04T03:31:29.016Z,101395.91
2023-01-04T03:34:14.851Z,101394.09
2023-01-04T03:36:54.651Z,101394.28
2023-01-04T03:40:00.330Z,101392.56
2023-01-04T03:42:59.109Z,101371.31
2023-01-04T03:45:51.400Z,101360.63
2023-01-04T03:48:30.323Z,101353.06
2023-01-04T03:51:14.728Z,101344.16
2023-01-04T03:53:54.254Z,101323.03
2023-01-04T03:56:26.473Z,101331.59
2023-01-04T03:58:54.681Z,101322.84
2023-01-04T04:01:24.920Z,101312.53
2023-01-04T04:04:11.060Z,101314.16
2023-01-04T04:06:56.781Z,101313.13
2023-01-04T04:09:23.785Z,101302.13
2023-01-04T04:11:52.427Z,101288.78
2023-01-04T04:14:19.359Z,101285.16
2023-01-04T04:16:46.350Z,101285.16
2023-01-04T04:19:13.567Z,101276.41
2023-01-04T04:21:40.755Z,101282.19
2023-01-04T04:24:09.936Z,101272.63
2023-01-04T04:26:36.813Z,101263.88
2023-01-04T04:29:05.054Z,101255.16
2023-01-04T04:31:32.000Z,101257.28
2023-01-04T04:33:59.114Z,101252.66
2023-01-04T04:36:25.948Z,101235.69
2023-01-04T04:38:52.861Z,101235.53
2023-01-04T04:41:38.446Z,101221.88
2023-01-04T04:44:08.851Z,101214.63
2023-01-04T04:46:36.169Z,101216.28
2023-01-04T04:49:04.147Z,101208.38
2023-01-04T04:51:31.397Z,101180.03
2023-01-04T04:53:58.332Z,101204.72
2023-01-04T04:56:25.824Z,101173.56
2023-01-04T04:58:52.817Z,101174.56
2023-01-04T05:01:21.442Z,101174.13
2023-01-04T05:03:48.562Z,101167.97
2023-01-04T05:06:15.604Z,101176.38
2023-01-04T05:08:42.473Z,101171.34
2023-01-04T05:11:12.438Z,101169.75
2023-01-04T05:13:40.001Z,101160.19
2023-01-04T05:16:09.393Z,101151.81
2023-01-04T05:18:37.611Z,101139.56
2023-01-04T05:21:04.793Z,101137.13
2023-01-04T05:23:31.724Z,101146.34
2023-01-04T05:26:01.549Z,101124.22
2023-01-04T05:28:29.073Z,101122.91
2023-01-04T05:30:56.349Z,101115.44
2023-01-04T05:33:25.917Z,101103.84
2023-01-04T05:35:56.821Z,101103.78
2023-01-04T05:38:24.328Z,101101.25
2023-01-04T05:40:52.046Z,101092.22
2023-01-04T05:43:20.869Z,101106.38
2023-01-04T05:45:50.335Z,101089.13
2023-01-04T05:48:17.672Z,101084.69
2023-01-04T05:50:45.828Z,101090.78
2023-01-04T05:53:17.533Z,101102.19
2023-01-04T05:55:44.596Z,101109.59
2023-01-04T05:58:11.587Z,101094.31
2023-01-04T06:00:39.288Z,101099.28
2023-01-04T06:03:06.421Z,101104.88
2023-01-04T06:05:33.450Z,101093.97
2023-01-04T06:08:00.315Z,101089.06
2023-01-04T06:10:28.581Z,101095.25
2023-01-04T06:12:55.422Z,101076.13
2023-01-04T06:15:22.324Z,101070.50
2023-01-04T06:17:49.220Z,101067.84
2023-01-04T06:20:16.162Z,101078.81
2023-01-04T06:22:43.088Z,101074.38
2023-01-04T06:25:10.552Z,101059.78
2023-01-04T06:27:38.846Z,101080.84
2023-01-04T06:30:07.324Z,101058.84
2023-01-04T06:32:34.341Z,101060.56
2023-01-04T06:35:01.562Z,101058.91
2023-01-04T06:37:28.498Z,101050.84
2023-01-04T06:39:55.426Z,101056.38
2023-01-04T06:42:41.065Z,101047.91
2023-01-04T06:45:11.140Z,101053.50
2023-01-04T06:47:38.094Z,101041.78
2023-01-04T06:50:05.622Z,101047.22
2023-01-04T06:52:32.561Z,101047.72
2023-01-04T06:54:59.593Z,101032.72
2023-01-04T06:57:27.512Z,101040.56
2023-01-04T06:59:54.391Z,101045.69
2023-01-04T07:02:22.793Z,101031.72
2023-01-04T07:04:49.907Z,101030.22
2023-01-04T07:07:17.043Z,101026.41
2023-01-04T07:09:44.042Z,101031.47
2023-01-04T07:12:10.950Z,101016.09
2023-01-04T07:14:37.842Z,101018.59
2023-01-04T07:17:04.751Z,101009.66
2023-01-04T07:19:33.100Z,101004.78
2023-01-04T07:22:01.654Z,101006.84
2023-01-04T07:24:30.691Z,101006.53
2023-01-04T07:26:59.985Z,101003.91
2023-01-04T07:29:26.880Z,100998.81
2023-01-04T07:31:54.791Z,100996.19
2023-01-04T07:34:25.517Z,101012.53
2023-01-04T07:36:53.862Z,101011.75
2023-01-04T07:39:21.900Z,101016.03
2023-01-04T07:41:50.059Z,101023.38
2023-01-04T07:44:21.477Z,101025.13
2023-01-04T07:46:48.754Z,101018.16
2023-01-04T07:49:18.508Z,101030.06
2023-01-04T07:51:47.550Z,101010.03
2023-01-04T07:54:16.934Z,101002.66
2023-01-04T07:56:44.360Z,100996.41
2023-01-04T07:59:13.487Z,101000.31
2023-01-04T08:01:41.483Z,101009.78
2023-01-04T08:04:11.858Z,101004.47
2023-01-04T08:06:40.791Z,100980.78
2023-01-04T08:09:08.548Z,100994.72
2023-01-04T08:11:37.381Z,100994.19
2023-01-04T08:14:04.564Z,100983.97
2023-01-04T08:16:34.494Z,100974.44
2023-01-04T08:19:05.241Z,100955.56
2023-01-04T08:21:35.718Z,100964.97
2023-01-04T08:24:03.339Z,100960.31
2023-01-04T08:26:31.148Z,100965.47
2023-01-04T08:28:59.685Z,100970.41
2023-01-04T08:31:29.059Z,100976.06
2023-01-04T08:33:57.739Z,100964.84
2023-01-04T08:36:27.951Z,100966.34
2023-01-04T08:39:00.913Z,100964.16
2023-01-04T08:44:19.256Z,100965.59
2023-01-04T08:46:46.717Z,100969.09
2023-01-04T08:49:14.068Z,100970.53
2023-01-04T08:51:41.121Z,100951.59
2023-01-04T08:54:09.025Z,100959.88
2023-01-04T08:56:36.239Z,100963.22
2023-01-04T08:59:03.944Z,100957.94
2023-01-04T09:01:34.604Z,100960.81
2023-01-04T09:04:02.576Z,100949.41
2023-01-04T09:06:30.284Z,100956.28
2023-01-04T09:08:58.187Z,100954.69
2023-01-04T09:11:26.751Z,100949.63
2023-01-04T09:14:06.721Z,100955.78
2023-01-04T09:16:37.067Z,100951.09
2023-01-04T09:19:05.214Z,100957.19
2023-01-04T09:21:32.238Z,100958.41
2023-01-04T09:23:59.407Z,100947.00
2023-01-04T09:26:26.408Z,100939.28
2023-01-04T09:28:56.187Z,100949.50
2023-01-04T09:31:25.903Z,100950.53
2023-01-04T09:36:41.980Z,100942.97
2023-01-04T09:39:14.904Z,100949.88
2023-01-04T09:41:57.135Z,100951.94
2023-01-04T09:47:41.766Z,100938.28
2023-01-04T09:50:19.077Z,100941.75
2023-01-04T09:53:03.506Z,100938.31
2023-01-04T09:55:41.220Z,100937.69
2023-01-04T09:58:23.711Z,100936.91
2023-01-04T10:00:59.513Z,100934.47
2023-01-04T10:03:33.265Z,100934.47
2023-01-04T10:06:03.343Z,100936.53
2023-01-04T10:08:33.838Z,100924.47
2023-01-04T10:11:19.052Z,100916.09
2023-01-04T10:14:07.136Z,100924.72
2023-01-04T10:23:05.224Z,100910.84
2023-01-04T10:25:43.563Z,100905.16
2023-01-04T10:28:40.494Z,100905.31
2023-01-04T10:31:40.955Z,100894.09
2023-01-04T10:34:21.005Z,100908.59
2023-01-04T10:36:51.487Z,100905.94
2023-01-04T10:39:30.279Z,100891.22
2023-01-04T10:42:12.034Z,100905.16
2023-01-04T10:44:49.722Z,100895.94
2023-01-04T10:47:25.851Z,100894.09
2023-01-04T10:49:58.011Z,100891.88
2023-01-04T10:52:31.688Z,100893.31
2023-01-04T10:55:08.011Z,100892.47
2023-01-04T10:57:42.353Z,100868.78
2023-01-04T11:00:18.217Z,100869.97
2023-01-04T11:02:56.337Z,100877.97
2023-01-04T11:05:29.833Z,100869.22
2023-01-04T11:08:03.053Z,100871.47
2023-01-04T11:10:40.456Z,100877.16
2023-01-04T11:13:07.628Z,100865.13
2023-01-04T11:15:35.591Z,100856.53
2023-01-04T11:18:07.629Z,100856.75
2023-01-04T11:20:38.030Z,100854.88
2023-01-04T11:23:13.967Z,100863.06
2023-01-04T11:25:55.287Z,100848.78
2023-01-04T11:28:29.577Z,100852.63
2023-01-04T11:31:10.028Z,100849.56
2023-01-04T11:33:54.458Z,100857.94
2023-01-04T11:36:38.563Z,100868.16
2023-01-04T11:39:17.175Z,100847.31
2023-01-04T11:42:00.782Z,100851.41
2023-01-04T11:44:32.407Z,100838.09
2023-01-04T11:47:08.267Z,100839.34
2023-01-04T11:49:37.326Z,100849.16
2023-01-04T11:52:05.330Z,100842.69
2023-01-04T11:54:32.246Z,100839.28
2023-01-04T11:57:11.692Z,100831.72
2023-01-04T11:59:39.085Z,100830.28
2023-01-04T12:05:28.158Z,100824.97
2023-01-04T12:07:56.496Z,100825.56
2023-01-04T12:10:26.929Z,100817.41
2023-01-04T12:12:58.724Z,100818.00
2023-01-04T12:15:34.510Z,100824.16
2023-01-04T12:18:09.588Z,100813.31
2023-01-04T12:20:36.619Z,100825.75
2023-01-04T12:23:03.531Z,100812.09
2023-01-04T12:25:38.937Z,100814.31
2023-01-04T12:28:27.287Z,100806.53
2023-01-04T12:30:54.497Z,100804.06
2023-01-04T12:33:39.324Z,100790.78
2023-01-04T12:36:09.593Z,100794.25
2023-01-04T12:39:01.313Z,100787.72
2023-01-04T12:42:24.487Z,100789.94
2023-01-04T12:45:22.473Z,100788.13
2023-01-04T12:48:26.520Z,100767.66
2023-01-04T12:51:31.494Z,100758.28
2023-01-04T12:54:01.754Z,100758.50
2023-01-04T12:57:28.307Z,100763.81
2023-01-04T12:59:58.984Z,100783.44
2023-01-04T13:02:30.028Z,100756.22
2023-01-04T13:05:43.577Z,100773.59
2023-01-04T13:07:50.071Z,100768.88
2023-01-04T13:10:31.503Z,100754.56
2023-01-04T13:13:24.378Z,100746.16
2023-01-04T13:16:08.865Z,100743.69
2023-01-04T13:18:41.593Z,100737.56
2023-01-04T13:21:16.085Z,100738.97
2023-01-04T13:23:51.308Z,100738.09
2023-01-04T13:26:39.491Z,100741.34
2023-01-04T13:29:18.262Z,100735.19
2023-01-04T13:31:55.683Z,100743.34
2023-01-04T13:34:42.267Z,100743.94
2023-01-04T13:37:23.100Z,100726.94
2023-01-04T13:39:52.374Z,100736.78
2023-01-04T13:42:28.163Z,100734.31
2023-01-04T13:45:32.141Z,100736.78
2023-01-04T13:48:05.165Z,100722.50
2023-01-04T13:50:37.891Z,100726.16
2023-01-04T13:53:08.667Z,100736.00
2023-01-04T13:55:38.087Z,100714.94
2023-01-04T13:58:15.331Z,100731.94
2023-01-04T14:00:49.357Z,100724.97
2023-01-04T14:03:29.939Z,100704.72
2023-01-04T14:06:15.460Z,100711.09
2023-01-04T14:08:52.067Z,100698.63
2023-01-04T14:11:43.036Z,100689.81
2023-01-04T14:14:34.208Z,100699.91
2023-01-04T14:17:26.072Z,100689.47
2023-01-04T14:19:56.027Z,100692.53
2023-01-04T14:22:40.370Z,100694.75
2023-01-04T14:25:55.996Z,100715.63
2023-01-04T14:28:47.042Z,100721.31
2023-01-04T14:31:43.546Z,100722.75
2023-01-04T14:34:14.580Z,100729.28
2023-01-04T14:36:42.482Z,100720.47
2023-01-04T14:39:19.182Z,100709.84
2023-01-04T14:41:57.456Z,100710.66
2023-01-04T14:44:28.575Z,100719.44
2023-01-04T14:46:58.286Z,100717.22
2023-01-04T14:49:28.644Z,100715.34
2023-01-04T14:51:58.215Z,100724.97
2023-01-04T14:54:28.856Z,100723.34
2023-01-04T14:56:57.846Z,100724.97
2023-01-04T14:59:26.523Z,100755.22
2023-01-04T15:01:55.655Z,100725.84
2023-01-04T15:04:23.137Z,100720.34
2023-01-04T15:06:53.622Z,100726.69
2023-01-04T15:09:21.067Z,100726.69
2023-01-04T15:11:49.768Z,100720.34
2023-01-04T15:14:16.923Z,100718.94
2023-01-04T15:16:44.323Z,100724.69
2023-01-04T15:19:11.477Z,100729.41
2023-01-04T15:21:41.220Z,100726.34
2023-01-04T15:24:09.365Z,100727.97
2023-01-04T15:26:36.358Z,100726.16
2023-01-04T15:29:06.562Z,100716.16
2023-01-04T15:31:38.975Z,100719.84
2023-01-04T15:34:07.655Z,100721.47
2023-01-04T15:36:38.321Z,100725.75
2023-01-04T15:39:05.572Z,100722.66
2023-01-04T15:41:51.695Z,100711.63
2023-01-04T15:44:20.146Z,100724.31
2023-01-04T15:46:47.729Z,100724.09
2023-01-04T15:49:17.480Z,100718.53
2023-01-04T15:51:45.084Z,100725.91
2023-01-04T15:54:12.062Z,100716.34
2023-01-04T15:56:39.011Z,100722.84
2023-01-04T15:59:05.958Z,100717.09
2023-01-04T16:01:34.587Z,100709.56
2023-01-04T16:04:02.474Z,100722.84
2023-01-04T16:06:29.394Z,100703.03
2023-01-04T16:08:58.739Z,100720.59
2023-01-04T16:11:25.753Z,100712.03
2023-01-04T16:13:53.492Z,100702.66
2023-01-04T16:16:28.264Z,100695.31
2023-01-04T16:18:57.444Z,100702.66
2023-01-04T16:21:27.250Z,100708.38
2023-01-04T16:24:03.887Z,100717.53
2023-01-04T16:26:34.080Z,100699.75
2023-01-04T16:29:02.650Z,100697.28
2023-01-04T16:31:34.067Z,100705.25
2023-01-04T16:34:02.586Z,100706.31
2023-01-04T16:36:30.086Z,100698.31
2023-01-04T16:38:57.507Z,100706.31
2023-01-04T16:41:24.992Z,100717.34
2023-01-04T16:43:55.249Z,100714.69
2023-01-04T16:46:24.978Z,100714.47
2023-01-04T16:48:54.813Z,100719.19
2023-01-04T16:51:25.100Z,100725.31
2023-01-04T16:53:53.367Z,100717.34
2023-01-04T16:56:23.451Z,100711.63
2023-01-04T16:58:50.888Z,100710.84
2023-01-04T17:01:21.021Z,100713.28
2023-01-04T17:03:49.291Z,100713.69
2023-01-04T17:06:19.879Z,100729.19
2023-01-04T17:08:50.888Z,100730.00
2023-01-04T17:14:13.504Z,100709.81
2023-01-04T17:16:40.834Z,100705.06
2023-01-04T17:19:07.892Z,100706.72
2023-01-04T17:21:35.662Z,100705.06
2023-01-04T17:24:04.647Z,100705.06
2023-01-04T17:26:33.193Z,100713.69
2023-01-04T17:29:01.821Z,100713.69
2023-01-04T17:31:32.850Z,100710.41
2023-01-04T17:34:00.703Z,100717.78
2023-01-04T17:36:27.715Z,100719.59
2023-01-04T17:38:55.346Z,100709.59
2023-01-04T17:41:26.347Z,100712.47
2023-01-04T17:44:00.073Z,100709.19
2023-01-04T17:46:31.758Z,100708.38
2023-01-04T17:49:21.769Z,100707.59
2023-01-04T17:51:47.450Z,100705.75
2023-01-04T17:54:14.327Z,100711.28
2023-01-04T17:56:42.722Z,100703.50
2023-01-04T17:59:11.752Z,100710.28
2023-01-04T18:01:38.784Z,100710.69
2023-01-04T18:04:05.850Z,100702.50
2023-01-04T18:06:35.993Z,100707.41
2023-01-04T18:09:09.196Z,100708.41
2023-01-04T18:11:37.216Z,100713.53
2023-01-04T18:14:09.800Z,100717.00
2023-01-04T18:16:56.168Z,100713.31
2023-01-04T18:19:25.135Z,100708.84
2023-01-04T18:21:52.089Z,100697.38
2023-01-04T18:27:24.443Z,100696.56
2023-01-04T18:29:56.018Z,100699.44
2023-01-04T18:32:24.770Z,100701.47
2023-01-04T18:34:51.780Z,100693.25
2023-01-04T18:37:19.227Z,100692.84
2023-01-04T18:39:46.975Z,100687.53
2023-01-04T18:42:14.056Z,100682.22
2023-01-04T18:44:45.964Z,100680.16
2023-01-04T18:47:18.689Z,100681.16
2023-01-04T18:49:45.729Z,100670.53
2023-01-04T18:52:12.943Z,100675.84
2023-01-04T18:54:39.844Z,100676.88
2023-01-04T18:57:06.971Z,100679.38
2023-01-04T18:59:34.300Z,100669.16
2023-01-04T19:02:02.536Z,100673.25
2023-01-04T19:04:34.306Z,100666.31
2023-01-04T19:07:02.099Z,100676.94
2023-01-04T19:09:29.404Z,100678.56
2023-01-04T19:11:56.315Z,100670.00
2023-01-04T19:14:23.207Z,100666.53
2023-01-04T19:16:50.170Z,100661.59
2023-01-04T19:19:17.048Z,100660.56
2023-01-04T19:21:46.206Z,100675.31
2023-01-04T19:24:13.318Z,100677.72
2023-01-04T19:26:40.439Z,100717.00
2023-01-04T19:29:08.455Z,100683.50
2023-01-04T19:31:36.129Z,100677.22
2023-01-04T19:34:03.288Z,100668.47
2023-01-04T19:36:30.254Z,100669.47
2023-01-04T19:38:58.885Z,100676.06
2023-01-04T19:41:33.800Z,100677.09
2023-01-04T19:44:02.948Z,100672.19
2023-01-04T19:46:31.565Z,100688.50
2023-01-04T19:48:58.733Z,100684.41
2023-01-04T19:51:27.725Z,100678.63
2023-01-04T19:53:55.679Z,100691.72
2023-01-04T19:56:24.276Z,100694.56
2023-01-04T19:58:51.293Z,100692.50
2023-01-04T20:01:21.507Z,100689.19
2023-01-04T20:03:49.358Z,100700.22
2023-01-04T20:06:17.263Z,100698.19
2023-01-04T20:08:44.489Z,100697.16
2023-01-04T20:11:12.131Z,100697.56
2023-01-04T20:13:41.054Z,100703.03
2023-01-04T20:16:08.806Z,100687.09
2023-01-04T20:18:37.313Z,100704.88
2023-01-04T20:21:10.349Z,100703.03
2023-01-04T20:23:37.758Z,100694.91
2023-01-04T20:26:11.422Z,100695.75
2023-01-04T20:28:41.853Z,100714.94
2023-01-04T20:31:12.164Z,100709.84
2023-01-04T20:33:39.548Z,100713.31
2023-01-04T20:36:09.638Z,100720.44
2023-01-04T20:38:40.224Z,100719.41
2023-01-04T20:41:08.824Z,100716.34
2023-01-04T20:43:37.179Z,100730.41
2023-01-04T20:46:13.054Z,100721.44
2023-01-04T20:48:41.392Z,100730.81
2023-01-04T20:51:13.973Z,100716.53
2023-01-04T20:53:41.370Z,100727.22
2023-01-04T20:56:13.580Z,100733.16
2023-01-04T20:58:41.047Z,100739.69
2023-01-04T21:01:09.937Z,100744.81
2023-01-04T21:03:37.438Z,100734.00
2023-01-04T21:06:08.141Z,100738.72
2023-01-04T21:08:36.728Z,100738.13
2023-01-04T21:11:04.675Z,100745.50
2023-01-04T21:13:32.214Z,100737.94
2023-01-04T21:15:59.598Z,100737.34
2023-01-04T21:18:27.887Z,100735.94
2023-01-04T21:20:55.015Z,100731.84
2023-01-04T21:23:24.791Z,100749.84
2023-01-04T21:25:52.308Z,100741.28
2023-01-04T21:28:21.589Z,100746.38
2023-01-04T21:30:49.496Z,100749.03
2023-01-04T21:33:17.725Z,100748.63
2023-01-04T21:35:46.040Z,100744.34
2023-01-04T21:38:12.973Z,100751.72
2023-01-04T21:40:41.769Z,100758.63
2023-01-04T21:43:17.263Z,100750.47
2023-01-04T21:45:44.381Z,100768.47
2023-01-04T21:48:11.270Z,100770.94
2023-01-04T21:50:38.207Z,100767.28
2023-01-04T21:53:06.537Z,100754.00
2023-01-04T21:55:35.072Z,100752.81
2023-01-04T21:58:04.080Z,100749.97
2023-01-04T22:00:30.999Z,100775.28
2023-01-04T22:02:57.959Z,100770.59
2023-01-04T22:05:24.899Z,100762.22
2023-01-04T22:07:51.839Z,100763.69
2023-01-04T22:10:22.055Z,100758.59
2023-01-04T22:12:50.299Z,100756.13
2023-01-04T22:15:17.369Z,100754.50
2023-01-04T22:17:44.276Z,100760.22
2023-01-04T22:20:11.764Z,100763.28
2023-01-04T22:22:38.666Z,100766.38
2023-01-04T22:25:06.557Z,100767.97
2023-01-04T22:27:34.964Z,100765.94
2023-01-04T22:30:02.072Z,100759.41
2023-01-04T22:32:28.963Z,100763.47
2023-01-04T22:34:55.996Z,100768.38
2023-01-04T22:37:22.893Z,100779.38
2023-01-04T22:39:50.122Z,100773.28
2023-01-04T22:42:17.019Z,100792.47
2023-01-04T22:44:45.215Z,100782.44
2023-01-04T22:47:12.061Z,100792.06
2023-01-04T22:49:38.965Z,100795.31
2023-01-04T22:52:05.913Z,100793.88
2023-01-04T22:54:33.126Z,100797.75
2023-01-04T22:57:00.272Z,100790.78
2023-01-04T22:59:27.377Z,100789.56
2023-01-04T23:01:55.614Z,100799.97
2023-01-04T23:04:22.730Z,100791.59
2023-01-04T23:06:49.691Z,100802.63
2023-01-04T23:09:18.922Z,100809.56
2023-01-04T23:11:46.180Z,100800.56
2023-01-04T23:14:16.744Z,100800.75
2023-01-04T23:16:44.755Z,100823.88
2023-01-04T23:19:14.344Z,100813.25
2023-01-04T23:21:42.154Z,100813.84
2023-01-04T23:24:13.080Z,100818.34
2023-01-04T23:26:40.813Z,100831.41
2023-01-04T23:29:08.065Z,100823.44
2023-01-04T23:31:35.010Z,100833.22
2023-01-04T23:34:05.439Z,100839.78
2023-01-04T23:36:37.062Z,100838.97
2023-01-04T23:39:08.050Z,100834.50
2023-01-04T23:41:44.872Z,100838.59
2023-01-04T23:44:20.041Z,100830.00
2023-01-04T23:46:51.410Z,100836.75
2023-01-04T23:49:18.284Z,100836.53
2023-01-04T23:51:46.566Z,100838.81
2023-01-04T23:54:13.765Z,100843.06
2023-01-04T23:56:41.076Z,100843.47
2023-01-04T23:59:08.742Z,100854.53
